Time;durP1;ratioP1;P1;durP2;ratioP2;P2;SDS_P1;SDS_P2;PMS_P1;PMS_P2;Temp;Humidity;BMP_temperature;BMP_pressure;BME280_temperature;BME280_humidity;BME280_pressure;Samples;Min_cycle;Max_cycle;Signal;HPM_P1;HPM_P2
2022/05/20 00:00:23;;;;;;;10.10;7.97;;;12.20;99.90;;;;;;4972129;28;20626;-88
2022/05/20 00:02:50;;;;;;;10.27;9.00;;;12.20;99.90;;;;;;4951928;29;20243;-84
2022/05/20 00:05:18;;;;;;;9.87;8.43;;;12.20;99.90;;;;;;4953367;29;20205;-88
2022/05/20 00:07:44;;;;;;;11.23;8.97;;;12.10;99.90;;;;;;4953516;29;20209;-88
2022/05/20 00:10:15;;;;;;;9.87;8.87;;;12.10;99.90;;;;;;4967914;28;20212;-86
2022/05/20 00:12:42;;;;;;;9.90;8.90;;;12.10;99.90;;;;;;4969460;28;20205;-87
2022/05/20 00:15:12;;;;;;;11.43;10.23;;;12.10;99.90;;;;;;4952868;29;20213;-85
2022/05/20 00:17:39;;;;;;;10.53;8.87;;;12.10;99.90;;;;;;4963826;28;20219;-85
2022/05/20 00:20:08;;;;;;;9.67;8.07;;;12.10;99.90;;;;;;4971661;28;20196;-86
2022/05/20 00:22:35;;;;;;;12.03;10.57;;;12.10;99.90;;;;;;4954568;28;20216;-90
2022/05/20 00:27:46;;;;;;;11.83;10.20;;;12.10;99.90;;;;;;4949021;28;20204;-80
2022/05/20 00:30:16;;;;;;;12.00;9.00;;;12.10;99.90;;;;;;4948711;29;20197;-88
2022/05/20 00:32:43;;;;;;;9.90;8.50;;;12.00;99.90;;;;;;4949663;29;20209;-82
2022/05/20 00:35:13;;;;;;;10.60;9.00;;;12.00;99.90;;;;;;4964514;28;20208;-85
2022/05/20 00:37:40;;;;;;;9.67;8.60;;;12.00;99.90;;;;;;4967132;28;20211;-79
2022/05/20 00:40:10;;;;;;;10.63;9.53;;;12.00;99.90;;;;;;4967614;28;20240;-88
2022/05/20 00:42:37;;;;;;;10.37;9.37;;;12.10;99.90;;;;;;4968293;28;20192;-85
2022/05/20 00:45:05;;;;;;;15.67;11.43;;;12.00;99.90;;;;;;4975274;28;20212;-86
2022/05/20 00:47:33;;;;;;;17.83;14.80;;;12.00;99.90;;;;;;4991335;28;20219;-85
2022/05/20 00:50:04;;;;;;;16.40;13.83;;;12.00;99.90;;;;;;4990621;28;20200;-88
2022/05/20 00:52:33;;;;;;;14.67;12.40;;;12.00;99.90;;;;;;4987631;28;20238;-81
2022/05/20 00:55:05;;;;;;;12.00;10.80;;;11.90;99.90;;;;;;4967467;28;20215;-84
2022/05/20 00:57:37;;;;;;;12.17;10.87;;;11.90;99.90;;;;;;4970468;28;20864;-80
2022/05/20 01:00:08;;;;;;;10.13;9.17;;;11.90;99.90;;;;;;4972261;28;20527;-86
2022/05/20 01:02:36;;;;;;;11.00;9.90;;;11.90;99.90;;;;;;4971839;28;20244;-87
2022/05/20 01:05:08;;;;;;;10.77;9.77;;;11.90;99.90;;;;;;4972508;28;20196;-88
2022/05/20 01:07:39;;;;;;;12.10;10.87;;;11.90;99.90;;;;;;4972840;28;20199;-88
2022/05/20 01:10:08;;;;;;;9.63;8.73;;;11.90;99.90;;;;;;4972367;28;20208;-88
2022/05/20 01:12:36;;;;;;;18.27;14.20;;;11.90;99.90;;;;;;4973015;28;20197;-87
2022/05/20 01:15:04;;;;;;;12.67;10.80;;;11.90;99.90;;;;;;4972785;28;20197;-88
2022/05/20 01:17:31;;;;;;;12.90;11.57;;;11.90;99.90;;;;;;4972684;28;20283;-88
2022/05/20 01:19:59;;;;;;;11.97;10.47;;;11.90;99.90;;;;;;4972678;28;20201;-88
2022/05/20 01:22:31;;;;;;;11.00;9.90;;;11.90;99.90;;;;;;4972858;28;20243;-87
2022/05/20 01:24:59;;;;;;;13.10;10.93;;;11.90;99.90;;;;;;4972604;28;20204;-88
2022/05/20 01:27:26;;;;;;;9.93;8.83;;;11.90;99.90;;;;;;4973408;28;20212;-88
2022/05/20 01:29:53;;;;;;;13.07;9.87;;;11.90;99.90;;;;;;4973437;28;20213;-87
2022/05/20 01:32:19;;;;;;;13.07;10.37;;;12.00;99.90;;;;;;4972997;28;20212;-88
2022/05/20 01:34:46;;;;;;;11.30;10.20;;;12.00;99.90;;;;;;4972895;28;20228;-89
2022/05/20 01:37:13;;;;;;;11.03;9.93;;;12.00;99.90;;;;;;4972428;28;20513;-86
2022/05/20 01:39:42;;;;;;;13.27;11.47;;;12.00;99.90;;;;;;4972635;28;20207;-87
2022/05/20 01:42:15;;;;;;;13.70;11.90;;;12.10;99.90;;;;;;4978682;28;20636;-87
2022/05/20 01:44:47;;;;;;;16.63;14.27;;;12.10;99.90;;;;;;4992616;28;20208;-88
2022/05/20 01:47:21;;;;;;;13.63;11.97;;;12.10;99.90;;;;;;4992025;28;20196;-87
2022/05/20 01:49:52;;;;;;;11.77;10.57;;;12.10;99.90;;;;;;4992191;28;20219;-88
2022/05/20 01:52:24;;;;;;;11.37;10.23;;;12.10;99.90;;;;;;4976486;28;20229;-88
2022/05/20 01:55:00;;;;;;;15.47;13.87;;;12.00;99.90;;;;;;4953170;29;20212;-88
2022/05/20 01:57:34;;;;;;;12.33;11.03;;;12.00;99.90;;;;;;4953114;29;20204;-87
2022/05/20 02:00:07;;;;;;;14.90;12.33;;;12.10;99.90;;;;;;4953549;28;20629;-89
2022/05/20 02:02:44;;;;;;;16.37;13.83;;;12.10;99.90;;;;;;4952540;29;20333;-88
2022/05/20 02:05:17;;;;;;;20.13;16.13;;;12.10;99.90;;;;;;4951699;29;20202;-88
2022/05/20 02:07:50;;;;;;;14.57;13.07;;;12.10;99.90;;;;;;4959229;28;20247;-89
2022/05/20 02:10:23;;;;;;;13.60;12.17;;;12.10;99.90;;;;;;4964879;28;20204;-86
2022/05/20 02:12:55;;;;;;;13.17;11.87;;;12.10;99.90;;;;;;4948813;29;20201;-89
2022/05/20 02:15:27;;;;;;;12.73;11.47;;;12.10;99.90;;;;;;4948988;29;20198;-88
2022/05/20 02:17:59;;;;;;;13.77;12.37;;;12.10;99.90;;;;;;4956296;28;20208;-90
2022/05/20 02:20:32;;;;;;;17.53;15.03;;;12.10;99.90;;;;;;4972937;28;20724;-89
2022/05/20 02:23:04;;;;;;;17.93;16.23;;;12.10;99.90;;;;;;4972321;28;20200;-88
2022/05/20 02:25:33;;;;;;;16.23;14.47;;;12.10;99.90;;;;;;4975975;28;20197;-88
2022/05/20 02:28:07;;;;;;;15.17;13.67;;;12.10;99.90;;;;;;4975231;28;20196;-86
2022/05/20 02:30:35;;;;;;;16.63;14.97;;;12.10;99.90;;;;;;4973468;28;20222;-88
2022/05/20 02:33:07;;;;;;;15.97;14.20;;;12.10;99.90;;;;;;4975524;28;20216;-87
2022/05/20 02:35:34;;;;;;;18.87;15.23;;;12.10;99.90;;;;;;4975548;28;20267;-87
2022/05/20 02:38:07;;;;;;;19.30;17.40;;;12.10;99.90;;;;;;4975101;28;20224;-88
2022/05/20 02:40:34;;;;;;;17.87;16.03;;;12.10;99.90;;;;;;4975351;28;20900;-86
2022/05/20 02:43:02;;;;;;;15.10;13.50;;;12.10;99.90;;;;;;4975343;28;20231;-89
2022/05/20 02:45:29;;;;;;;16.73;15.00;;;12.10;99.90;;;;;;4975263;28;20213;-88
2022/05/20 02:47:56;;;;;;;16.00;13.60;;;12.10;99.90;;;;;;4975569;28;20201;-88
2022/05/20 02:50:23;;;;;;;14.97;13.47;;;12.10;99.90;;;;;;4975516;28;20222;-88
2022/05/20 02:52:50;;;;;;;15.40;13.80;;;12.10;99.90;;;;;;4975012;28;20223;-87
2022/05/20 02:55:17;;;;;;;11.80;10.70;;;12.10;99.90;;;;;;4974669;28;20213;-88
2022/05/20 02:57:45;;;;;;;13.20;11.87;;;12.10;99.90;;;;;;4974900;28;20204;-87
2022/05/20 03:05:52;;;;;;;13.40;12.00;;;12.00;99.90;;;;;;4992016;28;20502;-82
2022/05/20 03:08:20;;;;;;;14.47;12.97;;;12.00;99.90;;;;;;4969950;28;20568;-88
2022/05/20 03:10:47;;;;;;;14.27;12.87;;;12.00;99.90;;;;;;4954127;29;20206;-86
2022/05/20 03:13:14;;;;;;;14.83;13.37;;;12.00;99.90;;;;;;4954254;29;20288;-86
2022/05/20 03:15:43;;;;;;;13.07;11.87;;;12.00;99.90;;;;;;4953779;29;20205;-84
2022/05/20 03:18:12;;;;;;;14.70;13.20;;;11.90;99.90;;;;;;4972644;28;20201;-87
2022/05/20 03:20:39;;;;;;;14.70;13.30;;;11.90;99.90;;;;;;4971423;28;20212;-83
2022/05/20 03:23:07;;;;;;;14.00;12.70;;;11.90;99.90;;;;;;4972936;28;20220;-83
2022/05/20 03:25:45;;;;;;;13.57;12.27;;;11.90;99.90;;;;;;4972747;28;20232;-86
2022/05/20 03:28:12;;;;;;;13.83;12.53;;;11.90;99.90;;;;;;4991078;28;20212;-88
2022/05/20 03:30:39;;;;;;;14.53;13.03;;;11.90;99.90;;;;;;4993487;28;20901;-88
2022/05/20 03:33:07;;;;;;;15.23;13.67;;;11.90;99.90;;;;;;4993743;28;20219;-87
2022/05/20 03:35:34;;;;;;;17.50;15.80;;;11.80;99.90;;;;;;4983192;28;20216;-86
2022/05/20 03:38:01;;;;;;;15.13;13.63;;;11.80;99.90;;;;;;4974087;28;20199;-88
2022/05/20 03:40:27;;;;;;;16.93;15.23;;;11.80;99.90;;;;;;4974539;28;20208;-88
2022/05/20 03:42:54;;;;;;;15.97;14.37;;;11.80;99.90;;;;;;4974104;28;20228;-86
2022/05/20 03:45:21;;;;;;;16.60;14.90;;;11.80;99.90;;;;;;4973944;28;20223;-87
2022/05/20 03:47:47;;;;;;;17.80;16.00;;;11.80;99.90;;;;;;4973624;28;20200;-87
2022/05/20 03:50:16;;;;;;;18.87;16.93;;;11.80;99.90;;;;;;4971911;28;20209;-87
2022/05/20 03:52:44;;;;;;;21.07;18.87;;;11.80;99.90;;;;;;4968432;28;20255;-85
2022/05/20 03:55:11;;;;;;;17.17;15.37;;;11.80;99.90;;;;;;4952594;28;20290;-84
2022/05/20 03:57:38;;;;;;;19.20;16.60;;;11.80;99.90;;;;;;4950250;29;20201;-83
2022/05/20 04:00:06;;;;;;;18.03;16.13;;;11.80;99.90;;;;;;4951329;29;20609;-83
2022/05/20 04:02:32;;;;;;;18.47;16.57;;;11.80;99.90;;;;;;4966353;28;20676;-85
2022/05/20 04:04:59;;;;;;;19.70;17.70;;;11.80;99.90;;;;;;4971117;28;20204;-82
2022/05/20 04:07:28;;;;;;;20.23;18.23;;;11.80;99.90;;;;;;4971195;28;20215;-82
2022/05/20 04:09:55;;;;;;;19.93;17.83;;;11.80;99.90;;;;;;4970600;28;20692;-83
2022/05/20 04:12:27;;;;;;;22.73;20.43;;;11.80;99.90;;;;;;4971588;28;20216;-87
2022/05/20 04:14:55;;;;;;;20.50;18.40;;;11.80;99.90;;;;;;4971755;28;20723;-87
2022/05/20 04:17:22;;;;;;;21.73;19.63;;;11.80;99.90;;;;;;4973302;28;20213;-82
2022/05/20 04:19:49;;;;;;;19.77;17.87;;;11.80;99.90;;;;;;4972526;28;20212;-86
2022/05/20 04:22:20;;;;;;;21.60;19.43;;;11.80;99.90;;;;;;4972051;28;20607;-87
2022/05/20 04:24:48;;;;;;;21.83;19.63;;;11.90;99.90;;;;;;4971422;28;20509;-84
2022/05/20 04:27:16;;;;;;;26.60;23.80;;;11.90;99.90;;;;;;4969708;28;20796;-85
2022/05/20 04:29:43;;;;;;;27.67;23.47;;;12.00;99.90;;;;;;4971391;28;20208;-87
2022/05/20 04:32:10;;;;;;;25.03;22.33;;;12.00;99.90;;;;;;4971604;28;20205;-82
2022/05/20 04:34:37;;;;;;;25.87;23.17;;;12.10;99.90;;;;;;4983713;28;20577;-83
2022/05/20 04:37:04;;;;;;;26.00;23.30;;;12.20;99.90;;;;;;4990946;28;20220;-85
2022/05/20 04:39:31;;;;;;;29.53;25.43;;;12.30;99.90;;;;;;4992894;28;20208;-87
2022/05/20 04:47:31;;;;;;;27.57;24.57;;;12.50;99.90;;;;;;4952936;28;20216;-84
2022/05/20 04:49:58;;;;;;;30.43;26.97;;;12.60;99.90;;;;;;4972867;28;20197;-87
2022/05/20 04:52:25;;;;;;;31.03;27.60;;;12.60;99.90;;;;;;4973884;28;20247;-87
2022/05/20 04:54:53;;;;;;;30.23;26.70;;;12.60;99.90;;;;;;4973192;28;20204;-87
2022/05/20 04:57:30;;;;;;;36.27;32.37;;;12.60;99.90;;;;;;4971634;28;20208;-87
2022/05/20 05:00:01;;;;;;;36.37;32.13;;;12.60;99.90;;;;;;4973141;28;20192;-87
2022/05/20 05:02:28;;;;;;;37.40;30.63;;;12.70;99.90;;;;;;4972194;28;20247;-88
2022/05/20 05:04:57;;;;;;;32.17;28.67;;;12.70;99.90;;;;;;4972790;28;20204;-88
2022/05/20 05:07:24;;;;;;;29.77;26.67;;;12.80;99.90;;;;;;4972987;28;20201;-87
2022/05/20 05:09:51;;;;;;;35.07;31.40;;;12.80;99.90;;;;;;4972564;28;20212;-87
2022/05/20 05:12:18;;;;;;;37.63;33.73;;;12.80;99.90;;;;;;4972913;28;20197;-80
2022/05/20 05:14:49;;;;;;;41.80;36.17;;;12.90;99.90;;;;;;4972037;28;20212;-88
2022/05/20 05:18:09;;;;;;;40.27;35.83;;;13.00;99.90;;;;;;4971839;28;20203;-88
2022/05/20 05:20:08;;;;;;;43.63;38.30;;;13.20;99.90;;;;;;4958970;28;20227;-88
2022/05/20 05:22:35;;;;;;;45.60;40.23;;;13.40;99.90;;;;;;4952406;29;20228;-89
2022/05/20 05:25:02;;;;;;;45.73;40.83;;;13.50;99.90;;;;;;4958800;28;20216;-87
2022/05/20 05:27:28;;;;;;;41.53;37.17;;;13.70;99.90;;;;;;4968109;28;20780;-83
2022/05/20 05:29:57;;;;;;;45.23;39.73;;;14.00;99.90;;;;;;4969143;28;20215;-83
2022/05/20 05:32:23;;;;;;;41.70;37.30;;;14.20;99.90;;;;;;4970128;28;20211;-88
2022/05/20 05:34:50;;;;;;;44.03;39.10;;;14.50;99.90;;;;;;4970289;28;20215;-84
2022/05/20 05:37:17;;;;;;;47.37;42.23;;;14.90;99.90;;;;;;4971337;28;20213;-87
2022/05/20 05:39:44;;;;;;;45.80;40.95;;;15.30;99.90;;;;;;4972586;28;20212;-93
2022/05/20 05:42:11;;;;;;;45.72;40.85;;;15.80;99.90;;;;;;4973858;28;20224;-94
2022/05/20 05:44:39;;;;;;;36.03;32.15;;;16.20;99.90;;;;;;4974394;28;20208;-91
2022/05/20 05:47:07;;;;;;;33.40;30.20;;;16.30;99.90;;;;;;4973640;28;20208;-92
2022/05/20 05:49:34;;;;;;;31.13;27.85;;;16.40;99.90;;;;;;4985608;28;20215;-91
2022/05/20 05:52:01;;;;;;;29.65;26.85;;;16.60;99.90;;;;;;4993325;28;20215;-92
2022/05/20 05:54:28;;;;;;;26.67;23.90;;;16.70;99.90;;;;;;4993961;28;20212;-92
2022/05/20 05:56:56;;;;;;;24.33;21.83;;;16.80;99.90;;;;;;4982616;28;20231;-93
2022/05/20 05:59:23;;;;;;;21.58;19.33;;;17.10;99.90;;;;;;4982992;28;20200;-94
2022/05/20 06:01:50;;;;;;;20.65;17.60;;;17.40;99.90;;;;;;4979647;28;20246;-92
2022/05/20 06:04:18;;;;;;;20.45;17.17;;;17.80;99.90;;;;;;4990529;28;20449;-94
2022/05/20 06:06:45;;;;;;;20.25;17.33;;;18.10;99.90;;;;;;4996493;28;20209;-93
2022/05/20 06:09:12;;;;;;;16.75;14.95;;;18.40;99.90;;;;;;4987390;28;20201;-82
2022/05/20 06:11:39;;;;;;;21.73;15.90;;;18.80;99.90;;;;;;4975233;28;20224;-85
2022/05/20 06:14:08;;;;;;;18.05;14.60;;;19.20;99.90;;;;;;4975334;28;20211;-82
2022/05/20 06:16:35;;;;;;;16.05;14.30;;;19.50;99.90;;;;;;4974108;28;20272;-89
2022/05/20 06:19:02;;;;;;;16.45;13.85;;;19.90;99.90;;;;;;4973409;28;20211;-86
2022/05/20 06:21:30;;;;;;;15.75;14.05;;;20.10;99.90;;;;;;4972860;28;20213;-86
2022/05/20 06:23:57;;;;;;;14.38;12.13;;;20.20;99.90;;;;;;4972807;28;20232;-92
2022/05/20 06:26:24;;;;;;;18.48;13.23;;;20.30;99.90;;;;;;4973139;28;20295;-91
2022/05/20 06:28:51;;;;;;;15.45;12.27;;;20.30;99.90;;;;;;4971467;28;20215;-87
2022/05/20 06:31:18;;;;;;;20.05;15.40;;;20.50;99.90;;;;;;4973987;28;20201;-88
2022/05/20 06:33:45;;;;;;;17.58;12.80;;;20.60;99.90;;;;;;4974744;28;20644;-93
2022/05/20 06:41:41;;;;;;;16.10;12.43;;;20.80;99.90;;;;;;4973343;28;20192;-95
2022/05/20 06:44:08;;;;;;;19.92;12.45;;;20.70;99.90;;;;;;4972799;28;20704;-89
2022/05/20 06:46:49;;;;;;;14.50;12.68;;;20.70;99.90;;;;;;4968507;28;20227;-94
2022/05/20 06:49:16;;;;;;;13.90;11.93;;;20.70;99.90;;;;;;4973599;28;20240;-89
2022/05/20 06:51:43;;;;;;;14.57;12.98;;;20.60;99.90;;;;;;4972381;28;20235;-93
2022/05/20 06:54:12;;;;;;;15.35;11.52;;;20.50;99.90;;;;;;4963069;28;20427;-91
2022/05/20 06:56:41;;;;;;;12.45;10.45;;;20.10;99.90;;;;;;4953653;28;20559;-93
2022/05/20 06:59:08;;;;;;;12.00;10.32;;;20.00;99.90;;;;;;4953961;28;20224;-92
2022/05/20 07:02:03;;;;;;;12.23;9.30;;;20.10;99.90;;;;;;4950189;29;20237;-88
2022/05/20 07:04:31;;;;;;;10.15;7.40;;;20.20;99.90;;;;;;4978656;28;20549;-86
2022/05/20 07:06:58;;;;;;;9.27;7.88;;;20.40;99.90;;;;;;4994196;28;20204;-95
2022/05/20 07:09:27;;;;;;;7.72;6.78;;;20.50;99.90;;;;;;4979158;28;20628;-94
2022/05/20 07:11:57;;;;;;;9.65;6.20;;;20.70;99.90;;;;;;4975880;28;20209;-95
2022/05/20 07:14:24;;;;;;;6.32;5.22;;;20.70;99.90;;;;;;4975166;28;20220;-85
2022/05/20 07:16:52;;;;;;;8.63;5.57;;;20.90;99.90;;;;;;4974484;28;20209;-95
2022/05/20 07:19:19;;;;;;;9.63;5.70;;;20.90;99.90;;;;;;4970564;28;20208;-94
2022/05/20 07:21:49;;;;;;;7.63;5.40;;;21.20;99.90;;;;;;4970966;28;20224;-93
2022/05/20 07:24:15;;;;;;;6.63;5.20;;;21.40;99.90;;;;;;4970822;28;20240;-92
2022/05/20 07:26:44;;;;;;;7.95;4.97;;;21.60;99.90;;;;;;4967936;28;20553;-90
2022/05/20 07:29:11;;;;;;;5.28;4.57;;;21.80;99.90;;;;;;4952051;28;20223;-93
2022/05/20 07:31:37;;;;;;;6.40;4.07;;;21.80;99.90;;;;;;4965410;28;20219;-90
2022/05/20 07:34:05;;;;;;;6.65;4.45;;;21.60;99.90;;;;;;4972458;28;20200;-92
2022/05/20 07:36:32;;;;;;;8.10;4.47;;;21.80;99.90;;;;;;4973764;28;20200;-93
2022/05/20 07:38:59;;;;;;;7.82;4.80;;;22.10;99.90;;;;;;4973733;28;20661;-89
2022/05/20 07:41:26;;;;;;;6.40;4.05;;;22.30;99.90;;;;;;4975545;28;20204;-95
2022/05/20 07:43:54;;;;;;;7.90;4.82;;;22.70;99.90;;;;;;4974606;28;20228;-90
2022/05/20 07:46:21;;;;;;;9.57;4.95;;;22.80;99.90;;;;;;4974762;28;20229;-95
2022/05/20 07:48:48;;;;;;;9.05;5.05;;;22.90;99.90;;;;;;4975069;28;20231;-91
2022/05/20 07:51:18;;;;;;;9.00;4.85;;;23.00;99.90;;;;;;4974579;28;20236;-92
2022/05/20 07:53:50;;;;;;;6.60;4.45;;;23.20;99.90;;;;;;4981128;28;20516;-89
2022/05/20 07:56:23;;;;;;;9.23;4.47;;;23.20;99.90;;;;;;4994286;28;20196;-91
2022/05/20 07:58:52;;;;;;;7.03;4.88;;;23.20;99.90;;;;;;4993831;28;20348;-91
2022/05/20 08:01:23;;;;;;;9.35;5.18;;;23.10;99.90;;;;;;4993144;28;20235;-95
2022/05/20 08:06:39;;;;;;;9.15;6.03;;;23.50;99.90;;;;;;4974150;28;20204;-91
2022/05/20 08:09:06;;;;;;;7.18;6.07;;;23.30;99.90;;;;;;4972940;28;20283;-94
2022/05/20 08:11:33;;;;;;;10.13;6.32;;;23.00;99.90;;;;;;4974114;28;20204;-93
2022/05/20 08:14:00;;;;;;;6.50;5.65;;;22.80;99.90;;;;;;4973803;28;20207;-93
2022/05/20 08:16:29;;;;;;;6.80;5.25;;;23.00;99.90;;;;;;4973791;28;20213;-94
2022/05/20 08:18:55;;;;;;;5.70;4.28;;;23.00;99.90;;;;;;4974256;28;20608;-89
2022/05/20 08:21:22;;;;;;;5.68;4.25;;;23.30;99.90;;;;;;4973354;28;20791;-87
2022/05/20 08:23:49;;;;;;;9.52;5.43;;;23.60;99.90;;;;;;4970496;28;20297;-93
2022/05/20 08:26:18;;;;;;;4.68;4.10;;;23.80;99.90;;;;;;4971701;28;20208;-93
2022/05/20 08:28:45;;;;;;;7.53;4.28;;;23.70;99.90;;;;;;4960722;28;20209;-88
2022/05/20 08:31:12;;;;;;;5.95;4.13;;;23.50;99.90;;;;;;4953252;29;20220;-89
2022/05/20 08:33:40;;;;;;;8.63;5.68;;;23.60;99.90;;;;;;4960292;28;20228;-90
2022/05/20 08:36:07;;;;;;;6.18;4.22;;;23.50;99.90;;;;;;4953855;28;20620;-89
2022/05/20 08:38:34;;;;;;;6.20;5.60;;;23.40;99.90;;;;;;4978979;28;20212;-90
2022/05/20 08:41:01;;;;;;;8.10;5.15;;;23.20;99.90;;;;;;4970468;28;20536;-90
2022/05/20 08:43:30;;;;;;;7.28;5.80;;;23.30;99.90;;;;;;4970698;28;20248;-91
2022/05/20 08:45:57;;;;;;;7.25;5.90;;;23.40;99.90;;;;;;4970955;28;20235;-88
2022/05/20 08:48:24;;;;;;;9.52;6.03;;;23.20;99.90;;;;;;4971104;28;20212;-89
2022/05/20 08:50:54;;;;;;;11.35;6.40;;;23.10;99.90;;;;;;4969525;28;20199;-89
2022/05/20 08:53:26;;;;;;;7.80;6.03;;;22.60;99.90;;;;;;4960917;28;20224;-89
2022/05/20 08:55:53;;;;;;;8.80;5.70;;;22.30;99.90;;;;;;4950380;28;20732;-87
2022/05/20 08:58:23;;;;;;;8.48;5.65;;;22.40;99.90;;;;;;4948862;29;20606;-86
2022/05/20 09:00:50;;;;;;;7.85;6.80;;;22.50;99.90;;;;;;4953427;28;20255;-87
2022/05/20 09:03:17;;;;;;;15.45;6.93;;;22.60;99.90;;;;;;4969400;28;20212;-87
2022/05/20 09:05:45;;;;;;;8.73;6.97;;;22.60;99.90;;;;;;4969638;28;20217;-87
2022/05/20 09:08:28;;;;;;;9.43;6.25;;;22.70;99.90;;;;;;4969968;28;20651;-86
2022/05/20 09:11:01;;;;;;;8.75;7.20;;;22.70;99.90;;;;;;4970290;28;20648;-92
2022/05/20 09:16:15;;;;;;;9.60;7.13;;;22.70;99.90;;;;;;4988562;28;20287;-91
2022/05/20 09:18:44;;;;;;;11.13;7.78;;;22.70;99.90;;;;;;4989356;28;20238;-85
2022/05/20 09:21:26;;;;;;;10.35;7.60;;;22.60;99.90;;;;;;4985862;28;20213;-94
2022/05/20 09:23:57;;;;;;;9.30;7.18;;;22.50;99.90;;;;;;4969751;28;20541;-85
2022/05/20 09:26:31;;;;;;;10.05;7.40;;;22.50;99.90;;;;;;4970231;28;20296;-86
2022/05/20 09:29:06;;;;;;;9.13;7.18;;;22.40;99.90;;;;;;4970801;28;20199;-94
2022/05/20 09:31:41;;;;;;;9.57;6.10;;;22.40;99.90;;;;;;4970262;28;20192;-87
2022/05/20 09:34:13;;;;;;;7.72;5.70;;;22.20;99.90;;;;;;4975736;28;20208;-92
2022/05/20 09:36:48;;;;;;;8.23;5.28;;;22.30;99.90;;;;;;4975520;28;20193;-93
2022/05/20 09:39:19;;;;;;;12.82;6.35;;;22.30;99.90;;;;;;4973685;28;20958;-86
2022/05/20 09:41:55;;;;;;;7.75;6.13;;;22.30;99.90;;;;;;4986052;28;20223;-93
2022/05/20 09:44:24;;;;;;;8.48;4.97;;;22.50;99.90;;;;;;4995111;28;20610;-90
2022/05/20 09:46:54;;;;;;;7.70;6.28;;;22.50;99.90;;;;;;4995114;28;20512;-91
2022/05/20 09:49:39;;;;;;;10.68;5.90;;;22.50;99.90;;;;;;4993090;28;20239;-91
2022/05/20 09:52:21;;;;;;;9.95;6.72;;;22.50;99.90;;;;;;4975435;28;20223;-91
2022/05/20 09:54:58;;;;;;;6.72;5.72;;;22.60;99.90;;;;;;4977057;28;20205;-91
2022/05/20 09:57:36;;;;;;;7.72;5.40;;;22.50;99.90;;;;;;4964764;28;20222;-89
2022/05/20 10:00:09;;;;;;;8.35;7.13;;;22.50;99.90;;;;;;4975408;28;20212;-90
2022/05/20 10:02:42;;;;;;;11.75;7.35;;;22.50;99.90;;;;;;4975247;28;20240;-87
2022/05/20 10:05:15;;;;;;;9.95;7.07;;;22.40;99.90;;;;;;4963825;28;20643;-88
2022/05/20 10:07:57;;;;;;;6.85;5.82;;;22.40;99.90;;;;;;4955719;28;20583;-91
2022/05/20 10:10:36;;;;;;;10.35;5.78;;;22.40;99.90;;;;;;4958442;28;20220;-89
2022/05/20 10:13:08;;;;;;;9.20;6.03;;;22.40;99.90;;;;;;4974375;28;20216;-92
2022/05/20 10:15:41;;;;;;;9.00;6.35;;;22.30;99.90;;;;;;4978470;28;20271;-84
2022/05/20 10:18:27;;;;;;;11.43;5.55;;;22.30;99.90;;;;;;4990431;28;20272;-88
2022/05/20 10:21:01;;;;;;;7.68;5.78;;;22.30;99.90;;;;;;4993242;28;20204;-86
2022/05/20 10:23:38;;;;;;;7.03;5.05;;;22.40;99.90;;;;;;4991636;28;20623;-84
2022/05/20 10:26:12;;;;;;;8.50;5.53;;;22.50;99.90;;;;;;4978960;28;20462;-82
2022/05/20 10:34:21;;;;;;;7.80;5.38;;;22.50;99.90;;;;;;4956168;28;20269;-82
2022/05/20 10:36:57;;;;;;;9.20;6.75;;;22.60;99.90;;;;;;4952825;29;20212;-88
2022/05/20 10:39:50;;;;;;;9.38;7.28;;;22.50;99.90;;;;;;4966040;28;20252;-84
2022/05/20 10:42:36;;;;;;;9.98;7.07;;;22.40;99.90;;;;;;4969416;28;20247;-88
2022/05/20 10:48:38;;;;;;;8.88;6.53;;;22.30;99.90;;;;;;4954127;29;20287;-90
2022/05/20 10:51:17;;;;;;;9.30;7.10;;;22.30;99.90;;;;;;4951930;29;20229;-82
2022/05/20 10:53:54;;;;;;;8.05;7.25;;;22.30;99.90;;;;;;4954935;28;20216;-91
2022/05/20 10:56:46;;;;;;;8.68;7.45;;;22.30;99.90;;;;;;4954931;29;20748;-93
2022/05/20 10:59:33;;;;;;;8.32;5.43;;;22.50;99.90;;;;;;4956356;28;20193;-88
2022/05/20 11:02:19;;;;;;;7.25;5.15;;;22.40;99.90;;;;;;4955953;29;20964;-90
2022/05/20 11:05:06;;;;;;;7.90;5.35;;;22.70;99.90;;;;;;4956110;29;20637;-87
2022/05/20 11:07:48;;;;;;;6.97;5.53;;;22.80;99.90;;;;;;4962893;28;20217;-86
2022/05/20 11:10:38;;;;;;;8.90;5.13;;;22.70;99.90;;;;;;4976292;28;20196;-88
2022/05/20 11:13:15;;;;;;;5.90;4.35;;;22.80;99.90;;;;;;4994957;28;20247;-89
2022/05/20 11:16:00;;;;;;;7.72;5.80;;;22.80;99.90;;;;;;4992865;28;20507;-87
2022/05/20 11:18:53;;;;;;;9.27;5.90;;;22.50;99.90;;;;;;4978647;28;20200;-82
2022/05/20 11:21:47;;;;;;;12.05;5.63;;;22.20;99.90;;;;;;4969293;28;20219;-90
2022/05/20 11:24:28;;;;;;;8.15;4.63;;;21.90;99.90;;;;;;4973468;28;20224;-87
2022/05/20 11:27:08;;;;;;;10.23;6.10;;;21.70;99.90;;;;;;4974212;28;20296;-85
2022/05/20 11:30:03;;;;;;;8.82;6.18;;;21.60;99.90;;;;;;4975035;28;20204;-85
2022/05/20 11:32:47;;;;;;;7.57;6.28;;;21.10;99.90;;;;;;4966236;28;20288;-81
2022/05/20 11:35:25;;;;;;;10.27;5.95;;;21.10;99.90;;;;;;4956273;28;20208;-94
2022/05/20 11:38:06;;;;;;;9.10;7.22;;;20.90;99.90;;;;;;4975126;28;20227;-86
2022/05/20 11:40:55;;;;;;;10.85;6.80;;;20.80;99.90;;;;;;4973848;28;20204;-91
2022/05/20 11:43:45;;;;;;;8.73;6.65;;;20.70;99.90;;;;;;4955343;29;20194;-88
2022/05/20 11:46:26;;;;;;;12.43;9.85;;;20.50;99.90;;;;;;4955299;28;20213;-85
2022/05/20 11:49:25;;;;;;;12.60;10.07;;;20.40;99.90;;;;;;4956695;28;20299;-88
2022/05/20 11:52:11;;;;;;;15.00;9.95;;;20.40;99.90;;;;;;4943375;28;20236;-90
2022/05/20 11:54:45;;;;;;;13.40;10.43;;;20.30;99.90;;;;;;4994211;28;20589;-90
2022/05/20 11:57:17;;;;;;;10.45;9.45;;;20.20;99.90;;;;;;4996892;28;20204;-93
2022/05/20 11:59:52;;;;;;;16.55;11.35;;;20.20;99.90;;;;;;4997196;28;20200;-87
2022/05/20 12:02:21;;;;;;;13.80;10.90;;;19.90;99.90;;;;;;4984192;28;20232;-89
2022/05/20 12:04:50;;;;;;;14.32;11.05;;;19.80;99.90;;;;;;4975623;28;20247;-90
2022/05/20 12:07:20;;;;;;;12.13;10.40;;;19.60;99.90;;;;;;4989563;28;20196;-86
2022/05/20 12:09:49;;;;;;;15.05;12.85;;;19.40;99.90;;;;;;4994501;28;20193;-91
2022/05/20 12:12:30;;;;;;;17.33;13.98;;;19.30;99.90;;;;;;4989029;28;20204;-88
2022/05/20 12:15:41;;;;;;;15.52;12.13;;;19.20;99.90;;;;;;4988118;28;20227;-89
2022/05/20 12:24:34;;;;;;;18.17;13.82;;;18.80;99.90;;;;;;4953581;28;20224;-90
2022/05/20 12:27:01;;;;;;;17.58;12.70;;;18.80;99.90;;;;;;4973744;28;20181;-89
2022/05/20 12:30:05;;;;;;;16.98;13.95;;;18.80;99.90;;;;;;4973660;28;20204;-86
2022/05/20 12:32:53;;;;;;;19.67;15.63;;;18.70;99.90;;;;;;4973328;28;20188;-92
2022/05/20 12:35:37;;;;;;;20.02;16.17;;;18.60;99.90;;;;;;4973397;28;20208;-93
2022/05/20 12:38:23;;;;;;;21.85;15.68;;;18.50;99.90;;;;;;4973289;28;20223;-86
2022/05/20 12:40:57;;;;;;;24.70;18.55;;;18.40;99.90;;;;;;4973090;28;20196;-86
2022/05/20 12:43:55;;;;;;;21.27;16.00;;;18.20;99.90;;;;;;4973239;28;20212;-86
2022/05/20 12:46:42;;;;;;;21.25;16.20;;;18.10;99.90;;;;;;4973248;28;20739;-82
2022/05/20 12:49:09;;;;;;;18.90;15.38;;;18.10;99.90;;;;;;4972268;28;20201;-86
2022/05/20 12:51:46;;;;;;;16.77;13.93;;;18.00;99.90;;;;;;4972975;28;20224;-85
2022/05/20 12:54:23;;;;;;;20.00;17.52;;;17.90;99.90;;;;;;4972297;28;20277;-87
2022/05/20 12:56:56;;;;;;;25.55;20.55;;;17.90;99.90;;;;;;4972244;28;20266;-84
2022/05/20 12:59:25;;;;;;;24.45;18.23;;;17.80;99.90;;;;;;4972790;28;20593;-85
2022/05/20 13:01:59;;;;;;;24.80;18.73;;;17.70;99.90;;;;;;4971930;28;20240;-86
2022/05/20 13:04:28;;;;;;;26.90;20.27;;;17.60;99.90;;;;;;4972169;28;21012;-85
2022/05/20 13:06:57;;;;;;;21.42;18.33;;;17.40;99.90;;;;;;4971179;28;20209;-85
2022/05/20 13:09:28;;;;;;;22.75;20.27;;;17.30;99.90;;;;;;4970547;28;20383;-86
2022/05/20 13:12:05;;;;;;;24.80;20.42;;;17.20;99.90;;;;;;4970523;28;20559;-83
2022/05/20 13:14:32;;;;;;;22.38;19.08;;;17.10;99.90;;;;;;4967981;28;20219;-87
2022/05/20 13:17:02;;;;;;;25.05;19.08;;;17.10;99.90;;;;;;4969515;28;20205;-86
2022/05/20 13:19:36;;;;;;;24.75;19.42;;;17.00;99.90;;;;;;4968041;28;20260;-85
2022/05/20 13:22:05;;;;;;;23.92;19.75;;;17.00;99.90;;;;;;4969647;28;20208;-85
2022/05/20 13:24:36;;;;;;;24.15;21.17;;;17.00;99.90;;;;;;4968628;28;20232;-85
2022/05/20 13:27:07;;;;;;;22.55;19.27;;;16.90;99.90;;;;;;4950791;29;20209;-86
2022/05/20 13:29:34;;;;;;;23.50;19.73;;;16.80;99.90;;;;;;4961671;28;20216;-85
2022/05/20 13:32:29;;;;;;;16.98;14.23;;;16.80;99.90;;;;;;4971692;28;20228;-84
2022/05/20 13:34:58;;;;;;;10.85;8.85;;;16.70;99.90;;;;;;4952558;29;20208;-83